Euskara    
Meteorología y climatología de Navarra
Datos de la estación - Meteo Navarra

Estación de Aoiz GN

Altitud 534 m.


Datos desde el 22/11/2020 hasta el 23/11/2020 en horario solar
Los datos son PROVISIONALES

Anterior Página 1 de 1 Siguiente Descargar: Formato para Excel 2000 o superior   Formato csv   Formato para OpenOffice Calc
Fecha Temperatura Humedad relativa Radiación global Insolación Precipitación Vel. viento 10 m Vel. viento 10 m Dir. viento 10 m
°C % W/m² s l/m² m/s km/h °
22/11/2020 0:00 1.5 91 0.0 0 0.0 0.2 0.8 263
22/11/2020 0:10 1.6 91 0.0 0 0.0 0.9 3.1 57
22/11/2020 0:20 1.6 92 0.0 0 0.0 0.4 1.5 99
22/11/2020 0:30 1.4 91 0.0 0 0.0 1.0 3.5 259
22/11/2020 0:40 0.9 91 0.0 0 0.0 0.7 2.6 260
22/11/2020 0:50 0.8 93 0.0 0 0.0 0.1 0.4 260
22/11/2020 1:00 0.6 93 0.0 0 0.0 0.0 0.0 260
22/11/2020 1:10 0.3 94 0.0 0 0.0 0.1 0.3 241
22/11/2020 1:20 0.3 94 0.0 0 0.0 0.3 1.2 65
22/11/2020 1:30 0.3 95 0.0 0 0.0 0.2 0.9 347
22/11/2020 1:40 0.6 94 0.0 0 0.0 0.1 0.5 282
22/11/2020 1:50 0.8 94 0.0 0 0.0 0.3 1.2 68
22/11/2020 2:00 0.3 92 0.0 0 0.0 0.8 2.8 256
22/11/2020 2:10 0.2 95 0.0 0 0.0 0.1 0.5 252
22/11/2020 2:20 0.1 94 0.0 0 0.0 0.5 1.9 241
22/11/2020 2:30 0.3 94 0.0 0 0.0 0.0 0.1 237
22/11/2020 2:40 0.4 94 0.0 0 0.0 0.3 0.9 238
22/11/2020 2:50 0.2 94 0.0 0 0.0 0.3 1.2 244
22/11/2020 3:00 -0.0 94 0.0 0 0.0 0.0 0.1 251
22/11/2020 3:10 0.4 95 0.0 0 0.0 0.2 0.6 315
22/11/2020 3:20 0.2 93 0.0 0 0.0 0.0 0.0 0
22/11/2020 3:30 -0.1 94 0.0 0 0.0 0.1 0.4 315
22/11/2020 3:40 -0.3 94 0.0 0 0.0 0.1 0.3 315
22/11/2020 3:50 -0.6 95 0.0 0 0.0 1.1 3.8 76
22/11/2020 4:00 -0.3 96 0.0 0 0.0 0.9 3.3 322
22/11/2020 4:10 -0.6 95 0.0 0 0.0 0.7 2.4 282
22/11/2020 4:20 -0.7 95 0.0 0 0.0 0.8 2.7 282
22/11/2020 4:30 -0.5 96 0.0 0 0.0 0.1 0.3 282
22/11/2020 4:40 -0.7 95 0.0 0 0.0 0.0 0.0 0
22/11/2020 4:50 -0.8 95 0.0 0 0.0 0.0 0.1 282
22/11/2020 5:00 -1.0 96 0.0 0 0.0 0.3 1.2 282
22/11/2020 5:10 -0.9 96 0.0 0 0.0 0.1 0.3 281
22/11/2020 5:20 -0.8 97 0.0 0 0.0 0.2 0.8 281
22/11/2020 5:30 -0.8 96 0.0 0 0.0 0.7 2.3 281
22/11/2020 5:40 -1.2 95 0.0 0 0.0 0.2 0.8 281
22/11/2020 5:50 -1.1 96 0.0 0 0.0 0.3 1.0 336
22/11/2020 6:00 -0.8 96 0.0 0 0.0 0.6 2.3 107
22/11/2020 6:10 -1.3 95 0.0 0 0.0 1.1 4.1 256
22/11/2020 6:20 -1.2 96 0.0 0 0.0 0.9 3.3 269
22/11/2020 6:30 -1.4 95 0.0 0 0.0 0.0 0.0 269
22/11/2020 6:40 -1.3 96 0.0 0 0.0 0.3 0.9 268
22/11/2020 6:50 -1.5 96 0.0 0 0.0 0.3 1.2 267
22/11/2020 7:00 -1.4 95 0.0 0 0.0 0.2 0.8 267
22/11/2020 7:10 -1.6 95 0.0 0 0.0 0.1 0.2 267
22/11/2020 7:20 -1.6 96 0.0 0 0.0 0.1 0.4 267
22/11/2020 7:30 -1.6 96 5.2 0 0.0 0.3 1.1 267
22/11/2020 7:40 -1.6 96 18.6 0 0.0 0.1 0.4 267
22/11/2020 7:50 -1.4 96 23.1 0 0.0 0.3 1.1 267
22/11/2020 8:00 -1.3 96 32.1 36 0.0 0.2 0.9 269
22/11/2020 8:10 -1.1 96 153.3 600 0.0 0.5 1.6 269
22/11/2020 8:20 -0.2 94 178.0 600 0.0 0.6 2.2 263
22/11/2020 8:30 0.5 90 203.7 600 0.0 0.4 1.3 215
22/11/2020 8:40 1.3 85 239.1 600 0.0 0.2 0.6 140
22/11/2020 8:50 1.5 84 264.4 600 0.0 0.9 3.3 232
22/11/2020 9:00 1.4 87 272.3 600 0.0 1.1 4.0 242
22/11/2020 9:10 1.8 86 283.2 600 0.0 1.0 3.4 235
22/11/2020 9:20 2.2 85 311.6 600 0.0 1.1 3.8 235
22/11/2020 9:30 2.6 84 327.6 600 0.0 1.3 4.8 246
22/11/2020 9:40 3.0 81 342.9 600 0.0 0.6 2.1 227
22/11/2020 9:50 3.8 80 362.5 600 0.0 0.5 1.9 167
22/11/2020 10:00 4.4 77 379.1 600 0.0 1.1 3.8 199
22/11/2020 10:10 4.2 78 396.2 600 0.0 0.9 3.3 211
22/11/2020 10:20 4.6 76 412.1 600 0.0 0.8 2.8 215
22/11/2020 10:30 5.1 74 427.5 600 0.0 1.2 4.2 231
22/11/2020 10:40 5.3 73 440.5 600 0.0 1.0 3.5 210
22/11/2020 10:50 6.0 71 452.2 600 0.0 1.1 3.9 215
22/11/2020 11:00 6.2 68 461.4 600 0.0 1.0 3.5 217
22/11/2020 11:10 6.5 67 469.9 600 0.0 1.3 4.6 209
22/11/2020 11:20 6.9 64 475.9 600 0.0 1.1 4.1 215
22/11/2020 11:30 7.3 62 480.8 600 0.0 1.1 3.9 212
22/11/2020 11:40 7.8 60 484.6 600 0.0 1.4 4.9 221
22/11/2020 11:50 8.3 59 486.3 600 0.0 1.6 5.7 244
22/11/2020 12:00 8.7 59 486.8 600 0.0 1.5 5.5 224
22/11/2020 12:10 8.9 59 484.7 600 0.0 1.5 5.3 209
22/11/2020 12:20 9.3 57 481.6 600 0.0 1.4 5.1 199
22/11/2020 12:30 9.8 55 476.7 600 0.0 1.4 4.9 234
22/11/2020 12:40 10.1 53 470.0 600 0.0 1.2 4.4 200
22/11/2020 12:50 10.2 52 461.8 600 0.0 1.4 4.9 217
22/11/2020 13:00 10.4 49 452.7 600 0.0 1.6 5.8 220
22/11/2020 13:10 10.8 49 441.1 600 0.0 1.2 4.2 216
22/11/2020 13:20 11.0 50 427.5 600 0.0 1.2 4.2 193
22/11/2020 13:30 11.4 49 413.8 600 0.0 1.1 3.9 210
22/11/2020 13:40 11.5 50 399.6 600 0.0 1.4 5.1 190
22/11/2020 13:50 11.6 51 382.5 600 0.0 1.2 4.2 203
22/11/2020 14:00 11.8 50 355.4 600 0.0 1.2 4.5 179
22/11/2020 14:10 11.9 50 336.2 600 0.0 1.3 4.7 170
22/11/2020 14:20 11.9 51 313.6 600 0.0 1.3 4.6 192
22/11/2020 14:30 12.2 50 294.4 600 0.0 1.3 4.6 203
22/11/2020 14:40 12.1 50 264.8 600 0.0 1.0 3.7 202
22/11/2020 14:50 12.1 51 236.7 600 0.0 1.2 4.2 179
22/11/2020 15:00 12.1 51 209.8 600 0.0 1.1 3.8 174
22/11/2020 15:10 12.0 51 175.1 600 0.0 1.1 3.8 199
22/11/2020 15:20 11.9 52 149.8 600 0.0 1.0 3.7 215
22/11/2020 15:30 12.0 51 150.1 600 0.0 1.2 4.2 220
22/11/2020 15:40 12.0 50 122.0 600 0.0 1.3 4.7 228
22/11/2020 15:50 11.7 50 94.3 600 0.0 1.0 3.5 232
22/11/2020 16:00 11.2 54 73.2 600 0.0 0.0 0.1 205
22/11/2020 16:10 10.4 56 50.9 600 0.0 0.4 1.3 68
22/11/2020 16:20 10.2 56 29.2 282 0.0 0.3 1.1 51
22/11/2020 16:30 10.0 59 4.1 0 0.0 0.2 0.7 51
22/11/2020 16:40 8.9 65 0.0 0 0.0 0.2 0.6 66
22/11/2020 16:50 7.9 68 0.0 0 0.0 0.3 1.1 70
22/11/2020 17:00 7.4 71 0.0 0 0.0 0.0 0.1 70
22/11/2020 17:10 6.7 73 0.0 0 0.0 0.2 0.6 70
22/11/2020 17:20 7.1 72 0.0 0 0.0 0.9 3.2 14
22/11/2020 17:30 6.5 79 0.0 0 0.0 1.2 4.4 353
22/11/2020 17:40 6.1 80 0.0 0 0.0 0.7 2.5 46
22/11/2020 17:50 5.8 83 0.0 0 0.0 1.5 5.5 36
22/11/2020 18:00 5.8 84 0.0 0 0.0 1.7 6.0 14
22/11/2020 18:10 5.9 82 0.0 0 0.0 0.4 1.4 66
22/11/2020 18:20 5.5 85 0.0 0 0.0 0.6 2.1 95
22/11/2020 18:30 5.3 84 0.0 0 0.0 0.1 0.5 280
22/11/2020 18:40 5.2 84 0.0 0 0.0 0.0 0.0 0
22/11/2020 18:50 5.1 84 0.0 0 0.0 0.0 0.1 293
22/11/2020 19:00 5.1 85 0.0 0 0.0 1.5 5.3 347
22/11/2020 19:10 5.0 87 0.0 0 0.0 1.0 3.6 63
22/11/2020 19:20 4.8 90 0.0 0 0.0 1.0 3.7 31
22/11/2020 19:30 5.0 89 0.0 0 0.0 1.0 3.6 43
22/11/2020 19:40 4.6 90 0.0 0 0.0 1.4 4.9 31
22/11/2020 19:50 4.9 90 0.0 0 0.0 1.8 6.6 16
22/11/2020 20:00 5.1 88 0.0 0 0.0 1.4 4.9 58
22/11/2020 20:10 4.4 90 0.0 0 0.0 1.5 5.3 68
22/11/2020 20:20 4.3 92 0.0 0 0.0 1.4 5.1 56
22/11/2020 20:30 4.0 92 0.0 0 0.0 1.0 3.6 60
22/11/2020 20:40 3.9 92 0.0 0 0.0 0.4 1.3 59
22/11/2020 20:50 3.9 91 0.0 0 0.0 0.6 2.3 62
22/11/2020 21:00 3.5 93 0.0 0 0.0 0.5 1.7 65
22/11/2020 21:10 3.6 92 0.0 0 0.0 0.3 1.2 63
22/11/2020 21:20 3.6 93 0.0 0 0.0 0.5 1.9 57
22/11/2020 21:30 3.4 92 0.0 0 0.0 0.4 1.3 106
22/11/2020 21:40 3.2 92 0.0 0 0.0 1.1 3.9 96
22/11/2020 21:50 2.8 93 0.0 0 0.0 0.4 1.4 113
22/11/2020 22:00 2.7 93 0.0 0 0.0 0.4 1.3 124
22/11/2020 22:10 2.8 94 0.0 0 0.0 0.1 0.2 106
22/11/2020 22:20 2.7 93 0.0 0 0.0 0.1 0.4 66
22/11/2020 22:30 2.8 94 0.0 0 0.0 0.5 1.7 103
22/11/2020 22:40 2.6 94 0.0 0 0.0 0.0 0.0 228
22/11/2020 22:50 2.8 94 0.0 0 0.0 0.7 2.5 123
22/11/2020 23:00 2.5 94 0.0 0 0.0 0.7 2.6 85
22/11/2020 23:10 2.6 94 0.0 0 0.0 1.3 4.7 61
22/11/2020 23:20 2.6 94 0.0 0 0.0 0.6 2.1 74
22/11/2020 23:30 2.2 94 0.0 0 0.0 0.7 2.4 135
22/11/2020 23:40 2.1 94 0.0 0 0.0 0.3 0.9 207
22/11/2020 23:50 2.2 94 0.0 0 0.0 0.5 1.8 97
Anterior Página 1 de 1 Siguiente

NOTA: Tipo de datos según el color:
   - Valores diarios o 10 minutos correctos
   - Valores diarios calculados a partir de un número de datos 10 minutos menor que 144 y mayor que 120, o de un número de datos semihorarios menor que 48 y mayor que 40 (caso de las estaciones de INTIA Y Ministerio)
   - Valores diez minutos estimados


Contacto        Enlaces        Aviso legal